sensor_id;sensor_type;location;lat;lon;timestamp;P1;durP1;ratioP1;P2;durP2;ratioP2
19664;SDS011;9980;51.020;7.772;2023-01-15T00:01:46;1.57;;;1.40;;
19664;SDS011;9980;51.020;7.772;2023-01-15T00:04:12;1.63;;;1.53;;
19664;SDS011;9980;51.020;7.772;2023-01-15T00:06:39;1.30;;;1.30;;
19664;SDS011;9980;51.020;7.772;2023-01-15T00:09:08;1.60;;;1.50;;
19664;SDS011;9980;51.020;7.772;2023-01-15T00:11:39;1.53;;;1.43;;
19664;SDS011;9980;51.020;7.772;2023-01-15T00:14:06;3.53;;;1.50;;
19664;SDS011;9980;51.020;7.772;2023-01-15T00:16:33;3.80;;;1.40;;
19664;SDS011;9980;51.020;7.772;2023-01-15T00:19:01;1.50;;;1.40;;
19664;SDS011;9980;51.020;7.772;2023-01-15T00:21:29;1.83;;;1.47;;
19664;SDS011;9980;51.020;7.772;2023-01-15T00:23:56;3.43;;;1.60;;
19664;SDS011;9980;51.020;7.772;2023-01-15T00:26:40;1.50;;;1.40;;
19664;SDS011;9980;51.020;7.772;2023-01-15T00:29:25;1.63;;;1.53;;
19664;SDS011;9980;51.020;7.772;2023-01-15T00:31:56;1.53;;;1.43;;
19664;SDS011;9980;51.020;7.772;2023-01-15T00:34:29;1.70;;;1.60;;
19664;SDS011;9980;51.020;7.772;2023-01-15T00:36:56;1.50;;;1.40;;
19664;SDS011;9980;51.020;7.772;2023-01-15T00:39:24;1.70;;;1.60;;
19664;SDS011;9980;51.020;7.772;2023-01-15T00:41:51;1.40;;;1.40;;
19664;SDS011;9980;51.020;7.772;2023-01-15T00:44:19;1.70;;;1.60;;
19664;SDS011;9980;51.020;7.772;2023-01-15T00:46:46;1.93;;;1.40;;
19664;SDS011;9980;51.020;7.772;2023-01-15T00:49:13;1.80;;;1.70;;
19664;SDS011;9980;51.020;7.772;2023-01-15T00:51:39;1.70;;;1.60;;
19664;SDS011;9980;51.020;7.772;2023-01-15T00:54:06;1.60;;;1.50;;
19664;SDS011;9980;51.020;7.772;2023-01-15T00:56:32;2.20;;;1.40;;
19664;SDS011;9980;51.020;7.772;2023-01-15T00:59:00;1.73;;;1.50;;
19664;SDS011;9980;51.020;7.772;2023-01-15T01:01:29;1.73;;;1.60;;
19664;SDS011;9980;51.020;7.772;2023-01-15T01:03:55;1.90;;;1.60;;
19664;SDS011;9980;51.020;7.772;2023-01-15T01:06:22;1.60;;;1.50;;
19664;SDS011;9980;51.020;7.772;2023-01-15T01:08:48;1.67;;;1.50;;
19664;SDS011;9980;51.020;7.772;2023-01-15T01:11:15;2.10;;;1.90;;
19664;SDS011;9980;51.020;7.772;2023-01-15T01:13:45;2.70;;;1.70;;
19664;SDS011;9980;51.020;7.772;2023-01-15T01:18:49;2.43;;;1.93;;
19664;SDS011;9980;51.020;7.772;2023-01-15T01:21:16;1.87;;;1.77;;
19664;SDS011;9980;51.020;7.772;2023-01-15T01:23:43;1.70;;;1.60;;
19664;SDS011;9980;51.020;7.772;2023-01-15T01:26:10;2.23;;;1.77;;
19664;SDS011;9980;51.020;7.772;2023-01-15T01:28:37;1.83;;;1.73;;
19664;SDS011;9980;51.020;7.772;2023-01-15T01:31:05;1.80;;;1.70;;
19664;SDS011;9980;51.020;7.772;2023-01-15T01:33:33;5.43;;;2.10;;
19664;SDS011;9980;51.020;7.772;2023-01-15T01:36:00;1.77;;;1.67;;
19664;SDS011;9980;51.020;7.772;2023-01-15T01:38:26;1.87;;;1.73;;
19664;SDS011;9980;51.020;7.772;2023-01-15T01:40:52;1.53;;;1.43;;
19664;SDS011;9980;51.020;7.772;2023-01-15T01:43:26;1.70;;;1.60;;
19664;SDS011;9980;51.020;7.772;2023-01-15T01:45:55;1.80;;;1.70;;
19664;SDS011;9980;51.020;7.772;2023-01-15T01:48:26;1.80;;;1.70;;
19664;SDS011;9980;51.020;7.772;2023-01-15T01:50:58;2.10;;;1.70;;
19664;SDS011;9980;51.020;7.772;2023-01-15T01:53:28;1.70;;;1.60;;
19664;SDS011;9980;51.020;7.772;2023-01-15T01:56:00;2.77;;;1.60;;
19664;SDS011;9980;51.020;7.772;2023-01-15T01:58:27;2.00;;;1.90;;
19664;SDS011;9980;51.020;7.772;2023-01-15T02:00:57;1.90;;;1.80;;
19664;SDS011;9980;51.020;7.772;2023-01-15T02:03:27;1.80;;;1.70;;
19664;SDS011;9980;51.020;7.772;2023-01-15T02:06:01;1.90;;;1.80;;
19664;SDS011;9980;51.020;7.772;2023-01-15T02:08:33;1.80;;;1.70;;
19664;SDS011;9980;51.020;7.772;2023-01-15T02:11:04;1.57;;;1.57;;
19664;SDS011;9980;51.020;7.772;2023-01-15T02:13:36;1.77;;;1.67;;
19664;SDS011;9980;51.020;7.772;2023-01-15T02:26:02;2.10;;;2.00;;
19664;SDS011;9980;51.020;7.772;2023-01-15T02:29:09;2.93;;;2.00;;
19664;SDS011;9980;51.020;7.772;2023-01-15T02:31:48;2.13;;;1.93;;
19664;SDS011;9980;51.020;7.772;2023-01-15T02:34:19;2.10;;;2.00;;
19664;SDS011;9980;51.020;7.772;2023-01-15T02:36:54;2.30;;;2.10;;
19664;SDS011;9980;51.020;7.772;2023-01-15T02:39:30;3.50;;;1.80;;
19664;SDS011;9980;51.020;7.772;2023-01-15T02:42:01;2.50;;;2.00;;
19664;SDS011;9980;51.020;7.772;2023-01-15T02:44:40;1.97;;;1.87;;
19664;SDS011;9980;51.020;7.772;2023-01-15T02:47:14;1.80;;;1.70;;
19664;SDS011;9980;51.020;7.772;2023-01-15T02:49:47;2.20;;;1.70;;
19664;SDS011;9980;51.020;7.772;2023-01-15T02:52:28;2.00;;;1.90;;
19664;SDS011;9980;51.020;7.772;2023-01-15T02:55:04;3.17;;;2.03;;
19664;SDS011;9980;51.020;7.772;2023-01-15T02:57:49;1.90;;;1.80;;
19664;SDS011;9980;51.020;7.772;2023-01-15T03:00:21;1.90;;;1.80;;
19664;SDS011;9980;51.020;7.772;2023-01-15T03:02:58;1.80;;;1.70;;
19664;SDS011;9980;51.020;7.772;2023-01-15T03:05:35;2.43;;;2.20;;
19664;SDS011;9980;51.020;7.772;2023-01-15T03:08:09;2.30;;;2.20;;
19664;SDS011;9980;51.020;7.772;2023-01-15T03:13:04;1.93;;;1.83;;
19664;SDS011;9980;51.020;7.772;2023-01-15T03:18:47;1.87;;;1.77;;
19664;SDS011;9980;51.020;7.772;2023-01-15T03:21:25;1.77;;;1.67;;
19664;SDS011;9980;51.020;7.772;2023-01-15T03:24:01;2.17;;;1.80;;
19664;SDS011;9980;51.020;7.772;2023-01-15T03:26:31;1.90;;;1.80;;
19664;SDS011;9980;51.020;7.772;2023-01-15T03:28:57;1.70;;;1.60;;
19664;SDS011;9980;51.020;7.772;2023-01-15T03:31:27;2.50;;;1.93;;
19664;SDS011;9980;51.020;7.772;2023-01-15T03:33:56;1.67;;;1.57;;
19664;SDS011;9980;51.020;7.772;2023-01-15T03:36:23;2.00;;;1.80;;
19664;SDS011;9980;51.020;7.772;2023-01-15T03:38:49;2.23;;;2.13;;
19664;SDS011;9980;51.020;7.772;2023-01-15T03:41:43;2.20;;;2.10;;
19664;SDS011;9980;51.020;7.772;2023-01-15T03:44:47;1.90;;;1.80;;
19664;SDS011;9980;51.020;7.772;2023-01-15T03:50:36;1.97;;;1.77;;
19664;SDS011;9980;51.020;7.772;2023-01-15T03:53:44;1.77;;;1.67;;
19664;SDS011;9980;51.020;7.772;2023-01-15T03:59:03;1.80;;;1.70;;
19664;SDS011;9980;51.020;7.772;2023-01-15T04:01:59;2.60;;;2.40;;
19664;SDS011;9980;51.020;7.772;2023-01-15T04:04:30;1.93;;;1.77;;
19664;SDS011;9980;51.020;7.772;2023-01-15T04:07:00;2.50;;;2.30;;
19664;SDS011;9980;51.020;7.772;2023-01-15T04:09:31;3.23;;;2.60;;
19664;SDS011;9980;51.020;7.772;2023-01-15T04:12:04;2.67;;;2.43;;
19664;SDS011;9980;51.020;7.772;2023-01-15T04:14:36;3.17;;;2.20;;
19664;SDS011;9980;51.020;7.772;2023-01-15T04:17:08;2.67;;;2.27;;
19664;SDS011;9980;51.020;7.772;2023-01-15T04:19:35;2.10;;;1.90;;
19664;SDS011;9980;51.020;7.772;2023-01-15T04:22:04;2.03;;;1.90;;
19664;SDS011;9980;51.020;7.772;2023-01-15T04:24:31;1.97;;;1.80;;
19664;SDS011;9980;51.020;7.772;2023-01-15T04:26:58;1.80;;;1.70;;
19664;SDS011;9980;51.020;7.772;2023-01-15T04:29:24;2.77;;;2.20;;
19664;SDS011;9980;51.020;7.772;2023-01-15T04:31:50;2.50;;;2.30;;
19664;SDS011;9980;51.020;7.772;2023-01-15T04:34:23;3.43;;;2.10;;
19664;SDS011;9980;51.020;7.772;2023-01-15T04:36:51;2.17;;;1.60;;
19664;SDS011;9980;51.020;7.772;2023-01-15T04:39:18;1.87;;;1.77;;
19664;SDS011;9980;51.020;7.772;2023-01-15T04:41:44;2.10;;;2.00;;
19664;SDS011;9980;51.020;7.772;2023-01-15T04:44:31;2.03;;;1.87;;
19664;SDS011;9980;51.020;7.772;2023-01-15T04:46:59;5.20;;;1.93;;
19664;SDS011;9980;51.020;7.772;2023-01-15T04:49:25;2.57;;;1.70;;
19664;SDS011;9980;51.020;7.772;2023-01-15T04:51:51;2.53;;;1.90;;
19664;SDS011;9980;51.020;7.772;2023-01-15T04:54:18;1.90;;;1.80;;
19664;SDS011;9980;51.020;7.772;2023-01-15T04:56:48;1.97;;;1.83;;
19664;SDS011;9980;51.020;7.772;2023-01-15T04:59:18;2.87;;;1.50;;
19664;SDS011;9980;51.020;7.772;2023-01-15T05:01:48;1.60;;;1.50;;
19664;SDS011;9980;51.020;7.772;2023-01-15T05:04:28;1.63;;;1.53;;
19664;SDS011;9980;51.020;7.772;2023-01-15T05:06:56;1.70;;;1.60;;
19664;SDS011;9980;51.020;7.772;2023-01-15T05:09:22;1.60;;;1.50;;
19664;SDS011;9980;51.020;7.772;2023-01-15T05:11:48;1.80;;;1.70;;
19664;SDS011;9980;51.020;7.772;2023-01-15T05:14:15;1.70;;;1.60;;
19664;SDS011;9980;51.020;7.772;2023-01-15T05:16:41;2.80;;;1.90;;
19664;SDS011;9980;51.020;7.772;2023-01-15T05:19:08;3.23;;;1.60;;
19664;SDS011;9980;51.020;7.772;2023-01-15T05:21:36;2.63;;;1.60;;
19664;SDS011;9980;51.020;7.772;2023-01-15T05:24:06;2.00;;;1.90;;
19664;SDS011;9980;51.020;7.772;2023-01-15T05:26:37;3.47;;;2.10;;
19664;SDS011;9980;51.020;7.772;2023-01-15T05:29:03;2.30;;;1.80;;
19664;SDS011;9980;51.020;7.772;2023-01-15T05:31:30;3.87;;;1.70;;
19664;SDS011;9980;51.020;7.772;2023-01-15T05:33:58;3.90;;;1.97;;
19664;SDS011;9980;51.020;7.772;2023-01-15T05:36:26;2.37;;;2.20;;
19664;SDS011;9980;51.020;7.772;2023-01-15T05:38:55;2.27;;;2.00;;
19664;SDS011;9980;51.020;7.772;2023-01-15T05:41:26;2.67;;;2.20;;
19664;SDS011;9980;51.020;7.772;2023-01-15T05:44:11;1.90;;;1.80;;
19664;SDS011;9980;51.020;7.772;2023-01-15T05:46:39;2.33;;;1.80;;
19664;SDS011;9980;51.020;7.772;2023-01-15T05:49:08;4.90;;;1.80;;
19664;SDS011;9980;51.020;7.772;2023-01-15T05:51:38;2.03;;;1.90;;
19664;SDS011;9980;51.020;7.772;2023-01-15T05:54:07;3.20;;;2.20;;
19664;SDS011;9980;51.020;7.772;2023-01-15T05:56:37;2.97;;;1.80;;
19664;SDS011;9980;51.020;7.772;2023-01-15T05:59:04;2.23;;;1.90;;
19664;SDS011;9980;51.020;7.772;2023-01-15T06:01:32;1.80;;;1.70;;
19664;SDS011;9980;51.020;7.772;2023-01-15T06:03:59;3.33;;;1.70;;
19664;SDS011;9980;51.020;7.772;2023-01-15T06:06:27;1.77;;;1.67;;
19664;SDS011;9980;51.020;7.772;2023-01-15T06:08:54;1.97;;;1.77;;
19664;SDS011;9980;51.020;7.772;2023-01-15T06:11:20;2.63;;;2.10;;
19664;SDS011;9980;51.020;7.772;2023-01-15T06:13:48;1.87;;;1.70;;
19664;SDS011;9980;51.020;7.772;2023-01-15T06:16:14;2.10;;;1.67;;
19664;SDS011;9980;51.020;7.772;2023-01-15T06:18:41;1.90;;;1.80;;
19664;SDS011;9980;51.020;7.772;2023-01-15T06:21:08;2.20;;;2.00;;
19664;SDS011;9980;51.020;7.772;2023-01-15T06:23:37;2.13;;;1.93;;
19664;SDS011;9980;51.020;7.772;2023-01-15T06:26:08;1.87;;;1.77;;
19664;SDS011;9980;51.020;7.772;2023-01-15T06:28:42;2.80;;;1.80;;
19664;SDS011;9980;51.020;7.772;2023-01-15T06:31:11;3.57;;;2.13;;
19664;SDS011;9980;51.020;7.772;2023-01-15T06:33:41;1.80;;;1.70;;
19664;SDS011;9980;51.020;7.772;2023-01-15T06:36:12;2.93;;;2.10;;
19664;SDS011;9980;51.020;7.772;2023-01-15T06:38:40;3.60;;;1.80;;
19664;SDS011;9980;51.020;7.772;2023-01-15T06:41:11;4.97;;;1.90;;
19664;SDS011;9980;51.020;7.772;2023-01-15T06:43:58;2.80;;;1.70;;
19664;SDS011;9980;51.020;7.772;2023-01-15T06:46:44;2.30;;;1.70;;
19664;SDS011;9980;51.020;7.772;2023-01-15T06:49:32;2.10;;;2.00;;
19664;SDS011;9980;51.020;7.772;2023-01-15T06:52:00;2.20;;;2.00;;
19664;SDS011;9980;51.020;7.772;2023-01-15T06:54:28;3.43;;;1.90;;
19664;SDS011;9980;51.020;7.772;2023-01-15T06:56:54;2.53;;;2.33;;
19664;SDS011;9980;51.020;7.772;2023-01-15T06:59:21;7.27;;;2.70;;
19664;SDS011;9980;51.020;7.772;2023-01-15T07:01:47;2.80;;;2.37;;
19664;SDS011;9980;51.020;7.772;2023-01-15T07:04:14;4.67;;;2.43;;
19664;SDS011;9980;51.020;7.772;2023-01-15T07:06:40;3.33;;;2.40;;
19664;SDS011;9980;51.020;7.772;2023-01-15T07:09:07;5.13;;;1.80;;
19664;SDS011;9980;51.020;7.772;2023-01-15T07:11:33;2.90;;;2.00;;
19664;SDS011;9980;51.020;7.772;2023-01-15T07:14:00;4.60;;;1.90;;
19664;SDS011;9980;51.020;7.772;2023-01-15T07:16:32;3.53;;;2.03;;
19664;SDS011;9980;51.020;7.772;2023-01-15T07:19:01;2.43;;;2.00;;
19664;SDS011;9980;51.020;7.772;2023-01-15T07:21:28;5.70;;;2.23;;
19664;SDS011;9980;51.020;7.772;2023-01-15T07:23:58;10.00;;;3.57;;
19664;SDS011;9980;51.020;7.772;2023-01-15T07:26:26;4.60;;;2.83;;
19664;SDS011;9980;51.020;7.772;2023-01-15T07:28:52;3.10;;;2.20;;
19664;SDS011;9980;51.020;7.772;2023-01-15T07:31:18;2.70;;;2.20;;
19664;SDS011;9980;51.020;7.772;2023-01-15T07:33:45;3.53;;;3.03;;
19664;SDS011;9980;51.020;7.772;2023-01-15T07:36:11;2.80;;;2.10;;
19664;SDS011;9980;51.020;7.772;2023-01-15T07:38:37;5.13;;;2.10;;
19664;SDS011;9980;51.020;7.772;2023-01-15T07:41:04;3.33;;;2.40;;
19664;SDS011;9980;51.020;7.772;2023-01-15T07:43:49;2.47;;;2.00;;
19664;SDS011;9980;51.020;7.772;2023-01-15T07:46:34;2.20;;;2.00;;
19664;SDS011;9980;51.020;7.772;2023-01-15T07:49:19;2.13;;;1.93;;
19664;SDS011;9980;51.020;7.772;2023-01-15T07:52:03;2.00;;;1.70;;
19664;SDS011;9980;51.020;7.772;2023-01-15T07:54:30;2.20;;;2.00;;
19664;SDS011;9980;51.020;7.772;2023-01-15T07:56:56;2.00;;;1.80;;
19664;SDS011;9980;51.020;7.772;2023-01-15T07:59:22;1.93;;;1.83;;
19664;SDS011;9980;51.020;7.772;2023-01-15T08:01:50;3.00;;;2.27;;
19664;SDS011;9980;51.020;7.772;2023-01-15T08:04:16;2.73;;;1.83;;
19664;SDS011;9980;51.020;7.772;2023-01-15T08:06:42;2.87;;;2.07;;
19664;SDS011;9980;51.020;7.772;2023-01-15T08:09:09;2.03;;;1.90;;
19664;SDS011;9980;51.020;7.772;2023-01-15T08:11:35;2.70;;;2.20;;
19664;SDS011;9980;51.020;7.772;2023-01-15T08:14:39;2.40;;;2.20;;
19664;SDS011;9980;51.020;7.772;2023-01-15T08:17:24;2.20;;;2.10;;
19664;SDS011;9980;51.020;7.772;2023-01-15T08:19:50;1.90;;;1.80;;
19664;SDS011;9980;51.020;7.772;2023-01-15T08:22:16;2.57;;;2.40;;
19664;SDS011;9980;51.020;7.772;2023-01-15T08:24:42;2.20;;;2.10;;
19664;SDS011;9980;51.020;7.772;2023-01-15T08:27:09;2.00;;;1.90;;
19664;SDS011;9980;51.020;7.772;2023-01-15T08:29:36;2.60;;;1.80;;
19664;SDS011;9980;51.020;7.772;2023-01-15T08:32:02;1.90;;;1.80;;
19664;SDS011;9980;51.020;7.772;2023-01-15T08:34:28;2.70;;;2.20;;
19664;SDS011;9980;51.020;7.772;2023-01-15T08:36:55;1.90;;;1.80;;
19664;SDS011;9980;51.020;7.772;2023-01-15T08:39:25;1.97;;;1.87;;
19664;SDS011;9980;51.020;7.772;2023-01-15T08:41:52;3.27;;;2.67;;
19664;SDS011;9980;51.020;7.772;2023-01-15T08:44:20;2.33;;;2.10;;
19664;SDS011;9980;51.020;7.772;2023-01-15T08:46:49;4.73;;;4.23;;
19664;SDS011;9980;51.020;7.772;2023-01-15T08:49:17;3.03;;;2.80;;
19664;SDS011;9980;51.020;7.772;2023-01-15T08:51:45;7.60;;;4.67;;
19664;SDS011;9980;51.020;7.772;2023-01-15T08:54:19;3.17;;;2.80;;
19664;SDS011;9980;51.020;7.772;2023-01-15T08:56:49;2.50;;;1.90;;
19664;SDS011;9980;51.020;7.772;2023-01-15T08:59:15;2.23;;;2.13;;
19664;SDS011;9980;51.020;7.772;2023-01-15T09:01:41;2.60;;;2.10;;
19664;SDS011;9980;51.020;7.772;2023-01-15T09:04:12;2.27;;;2.00;;
19664;SDS011;9980;51.020;7.772;2023-01-15T09:06:41;2.00;;;1.90;;
19664;SDS011;9980;51.020;7.772;2023-01-15T09:09:08;1.80;;;1.70;;
19664;SDS011;9980;51.020;7.772;2023-01-15T09:11:35;2.03;;;1.93;;
19664;SDS011;9980;51.020;7.772;2023-01-15T09:14:05;2.93;;;1.90;;
19664;SDS011;9980;51.020;7.772;2023-01-15T09:16:56;2.10;;;2.00;;
19664;SDS011;9980;51.020;7.772;2023-01-15T09:19:22;2.30;;;2.00;;
19664;SDS011;9980;51.020;7.772;2023-01-15T09:21:49;2.10;;;2.00;;
19664;SDS011;9980;51.020;7.772;2023-01-15T09:24:15;2.23;;;2.07;;
19664;SDS011;9980;51.020;7.772;2023-01-15T09:26:41;2.30;;;2.10;;
19664;SDS011;9980;51.020;7.772;2023-01-15T09:29:07;3.30;;;2.23;;
19664;SDS011;9980;51.020;7.772;2023-01-15T09:31:34;2.13;;;2.03;;
19664;SDS011;9980;51.020;7.772;2023-01-15T09:34:00;3.30;;;3.10;;
19664;SDS011;9980;51.020;7.772;2023-01-15T09:36:28;8.57;;;2.87;;
19664;SDS011;9980;51.020;7.772;2023-01-15T09:39:00;2.53;;;2.43;;
19664;SDS011;9980;51.020;7.772;2023-01-15T09:41:31;2.50;;;2.40;;
19664;SDS011;9980;51.020;7.772;2023-01-15T09:47:17;2.33;;;2.23;;
19664;SDS011;9980;51.020;7.772;2023-01-15T09:55:28;4.20;;;3.00;;
19664;SDS011;9980;51.020;7.772;2023-01-15T09:58:01;2.40;;;2.20;;
19664;SDS011;9980;51.020;7.772;2023-01-15T10:00:33;2.10;;;2.00;;
19664;SDS011;9980;51.020;7.772;2023-01-15T10:06:11;2.40;;;2.30;;
19664;SDS011;9980;51.020;7.772;2023-01-15T10:09:05;2.80;;;2.30;;
19664;SDS011;9980;51.020;7.772;2023-01-15T10:11:59;2.90;;;2.70;;
19664;SDS011;9980;51.020;7.772;2023-01-15T10:15:09;2.60;;;2.40;;
19664;SDS011;9980;51.020;7.772;2023-01-15T10:17:48;2.23;;;2.13;;
19664;SDS011;9980;51.020;7.772;2023-01-15T10:28:58;2.53;;;2.43;;
19664;SDS011;9980;51.020;7.772;2023-01-15T10:31:51;2.40;;;2.10;;
19664;SDS011;9980;51.020;7.772;2023-01-15T10:37:05;2.30;;;2.10;;
19664;SDS011;9980;51.020;7.772;2023-01-15T10:42:39;2.57;;;2.30;;
19664;SDS011;9980;51.020;7.772;2023-01-15T10:48:19;3.47;;;2.37;;
19664;SDS011;9980;51.020;7.772;2023-01-15T10:51:23;3.10;;;2.53;;
19664;SDS011;9980;51.020;7.772;2023-01-15T10:56:40;3.43;;;2.10;;
19664;SDS011;9980;51.020;7.772;2023-01-15T10:59:14;2.63;;;2.40;;
19664;SDS011;9980;51.020;7.772;2023-01-15T11:01:48;4.37;;;2.10;;
19664;SDS011;9980;51.020;7.772;2023-01-15T11:04:20;4.90;;;2.37;;
19664;SDS011;9980;51.020;7.772;2023-01-15T11:06:47;3.63;;;2.10;;
19664;SDS011;9980;51.020;7.772;2023-01-15T11:09:18;3.17;;;2.13;;
19664;SDS011;9980;51.020;7.772;2023-01-15T11:11:49;4.40;;;2.07;;
19664;SDS011;9980;51.020;7.772;2023-01-15T11:14:35;2.17;;;2.00;;
19664;SDS011;9980;51.020;7.772;2023-01-15T11:17:31;7.13;;;3.20;;
19664;SDS011;9980;51.020;7.772;2023-01-15T11:23:14;3.53;;;2.43;;
19664;SDS011;9980;51.020;7.772;2023-01-15T11:25:49;3.47;;;2.47;;
19664;SDS011;9980;51.020;7.772;2023-01-15T11:28:32;5.90;;;3.70;;
19664;SDS011;9980;51.020;7.772;2023-01-15T11:31:08;5.73;;;3.30;;
19664;SDS011;9980;51.020;7.772;2023-01-15T11:33:36;15.37;;;7.50;;
19664;SDS011;9980;51.020;7.772;2023-01-15T11:36:07;7.13;;;4.47;;
19664;SDS011;9980;51.020;7.772;2023-01-15T11:38:48;10.47;;;3.97;;
19664;SDS011;9980;51.020;7.772;2023-01-15T11:44:11;6.10;;;2.80;;
19664;SDS011;9980;51.020;7.772;2023-01-15T11:46:59;4.13;;;2.13;;
19664;SDS011;9980;51.020;7.772;2023-01-15T11:49:49;3.60;;;2.70;;
19664;SDS011;9980;51.020;7.772;2023-01-15T11:52:59;4.23;;;2.50;;
19664;SDS011;9980;51.020;7.772;2023-01-15T11:55:26;3.40;;;2.30;;
19664;SDS011;9980;51.020;7.772;2023-01-15T11:57:54;5.37;;;2.20;;
19664;SDS011;9980;51.020;7.772;2023-01-15T12:00:23;7.67;;;2.20;;
19664;SDS011;9980;51.020;7.772;2023-01-15T12:03:03;6.53;;;2.67;;
19664;SDS011;9980;51.020;7.772;2023-01-15T12:05:44;4.63;;;2.20;;
19664;SDS011;9980;51.020;7.772;2023-01-15T12:08:41;8.23;;;3.13;;
19664;SDS011;9980;51.020;7.772;2023-01-15T12:11:28;4.50;;;2.40;;
19664;SDS011;9980;51.020;7.772;2023-01-15T12:17:12;4.13;;;2.70;;
19664;SDS011;9980;51.020;7.772;2023-01-15T12:20:23;7.50;;;2.10;;
19664;SDS011;9980;51.020;7.772;2023-01-15T12:26:24;3.47;;;2.43;;
19664;SDS011;9980;51.020;7.772;2023-01-15T12:31:45;2.30;;;2.00;;
19664;SDS011;9980;51.020;7.772;2023-01-15T12:34:26;2.33;;;2.13;;
19664;SDS011;9980;51.020;7.772;2023-01-15T12:37:08;9.60;;;2.53;;
19664;SDS011;9980;51.020;7.772;2023-01-15T12:42:44;4.83;;;2.40;;
19664;SDS011;9980;51.020;7.772;2023-01-15T12:45:36;2.80;;;1.90;;
19664;SDS011;9980;51.020;7.772;2023-01-15T12:48:15;8.03;;;2.27;;
19664;SDS011;9980;51.020;7.772;2023-01-15T12:50:55;2.83;;;2.53;;
19664;SDS011;9980;51.020;7.772;2023-01-15T12:53:40;4.93;;;2.30;;
19664;SDS011;9980;51.020;7.772;2023-01-15T12:56:19;2.33;;;2.13;;
19664;SDS011;9980;51.020;7.772;2023-01-15T12:58:55;3.57;;;1.90;;
19664;SDS011;9980;51.020;7.772;2023-01-15T13:02:11;3.53;;;2.10;;
19664;SDS011;9980;51.020;7.772;2023-01-15T13:05:12;3.33;;;1.90;;
19664;SDS011;9980;51.020;7.772;2023-01-15T13:08:00;4.10;;;2.20;;
19664;SDS011;9980;51.020;7.772;2023-01-15T13:10:53;2.47;;;2.10;;
19664;SDS011;9980;51.020;7.772;2023-01-15T13:13:21;3.27;;;2.13;;
19664;SDS011;9980;51.020;7.772;2023-01-15T13:16:17;3.40;;;2.00;;
19664;SDS011;9980;51.020;7.772;2023-01-15T13:21:45;2.83;;;2.10;;
19664;SDS011;9980;51.020;7.772;2023-01-15T13:27:22;4.50;;;2.73;;
19664;SDS011;9980;51.020;7.772;2023-01-15T13:32:50;3.40;;;2.53;;
19664;SDS011;9980;51.020;7.772;2023-01-15T13:35:36;2.67;;;2.47;;
19664;SDS011;9980;51.020;7.772;2023-01-15T13:38:20;7.30;;;2.70;;
19664;SDS011;9980;51.020;7.772;2023-01-15T13:40:53;4.40;;;2.40;;
19664;SDS011;9980;51.020;7.772;2023-01-15T13:46:07;3.40;;;2.40;;
19664;SDS011;9980;51.020;7.772;2023-01-15T13:48:50;3.87;;;2.40;;
19664;SDS011;9980;51.020;7.772;2023-01-15T13:51:22;6.73;;;2.57;;
19664;SDS011;9980;51.020;7.772;2023-01-15T13:53:52;4.73;;;2.57;;
19664;SDS011;9980;51.020;7.772;2023-01-15T13:56:29;3.17;;;2.60;;
19664;SDS011;9980;51.020;7.772;2023-01-15T13:59:02;2.50;;;2.30;;
19664;SDS011;9980;51.020;7.772;2023-01-15T14:01:35;6.37;;;2.73;;
19664;SDS011;9980;51.020;7.772;2023-01-15T14:17:56;3.27;;;2.60;;
19664;SDS011;9980;51.020;7.772;2023-01-15T14:20:42;3.27;;;2.30;;
19664;SDS011;9980;51.020;7.772;2023-01-15T14:23:56;4.37;;;2.30;;
19664;SDS011;9980;51.020;7.772;2023-01-15T14:27:39;3.70;;;2.43;;
19664;SDS011;9980;51.020;7.772;2023-01-15T14:33:03;3.80;;;2.60;;
19664;SDS011;9980;51.020;7.772;2023-01-15T14:36:09;5.50;;;2.63;;
19664;SDS011;9980;51.020;7.772;2023-01-15T14:38:45;2.90;;;2.60;;
19664;SDS011;9980;51.020;7.772;2023-01-15T14:41:23;3.00;;;2.70;;
19664;SDS011;9980;51.020;7.772;2023-01-15T14:43:56;5.13;;;2.67;;
19664;SDS011;9980;51.020;7.772;2023-01-15T14:46:28;4.80;;;2.30;;
19664;SDS011;9980;51.020;7.772;2023-01-15T14:49:04;3.43;;;2.20;;
19664;SDS011;9980;51.020;7.772;2023-01-15T14:51:35;4.40;;;2.60;;
19664;SDS011;9980;51.020;7.772;2023-01-15T14:54:14;3.50;;;2.20;;
19664;SDS011;9980;51.020;7.772;2023-01-15T14:56:48;2.80;;;2.00;;
19664;SDS011;9980;51.020;7.772;2023-01-15T14:59:22;5.33;;;2.60;;
19664;SDS011;9980;51.020;7.772;2023-01-15T15:02:17;5.10;;;3.03;;
19664;SDS011;9980;51.020;7.772;2023-01-15T15:04:50;2.23;;;2.03;;
19664;SDS011;9980;51.020;7.772;2023-01-15T15:07:21;3.17;;;2.40;;
19664;SDS011;9980;51.020;7.772;2023-01-15T15:09:53;2.17;;;2.00;;
19664;SDS011;9980;51.020;7.772;2023-01-15T15:12:47;3.30;;;2.30;;
19664;SDS011;9980;51.020;7.772;2023-01-15T15:16:07;2.43;;;2.23;;
19664;SDS011;9980;51.020;7.772;2023-01-15T15:18:52;2.80;;;2.00;;
19664;SDS011;9980;51.020;7.772;2023-01-15T15:21:42;3.07;;;2.20;;
19664;SDS011;9980;51.020;7.772;2023-01-15T15:24:15;3.83;;;2.20;;
19664;SDS011;9980;51.020;7.772;2023-01-15T15:26:50;2.33;;;2.03;;
19664;SDS011;9980;51.020;7.772;2023-01-15T15:29:18;3.37;;;2.20;;
19664;SDS011;9980;51.020;7.772;2023-01-15T15:34:34;2.40;;;2.20;;
19664;SDS011;9980;51.020;7.772;2023-01-15T15:37:25;2.83;;;2.60;;
19664;SDS011;9980;51.020;7.772;2023-01-15T15:43:09;2.57;;;2.37;;
19664;SDS011;9980;51.020;7.772;2023-01-15T15:46:14;4.50;;;2.70;;
19664;SDS011;9980;51.020;7.772;2023-01-15T15:49:14;2.53;;;2.33;;
19664;SDS011;9980;51.020;7.772;2023-01-15T15:51:52;3.27;;;2.30;;
19664;SDS011;9980;51.020;7.772;2023-01-15T15:54:20;3.00;;;2.70;;
19664;SDS011;9980;51.020;7.772;2023-01-15T15:59:34;3.93;;;2.63;;
19664;SDS011;9980;51.020;7.772;2023-01-15T16:02:15;2.53;;;2.33;;
19664;SDS011;9980;51.020;7.772;2023-01-15T16:04:59;2.50;;;2.30;;
19664;SDS011;9980;51.020;7.772;2023-01-15T16:07:48;3.80;;;3.40;;
19664;SDS011;9980;51.020;7.772;2023-01-15T16:10:25;3.17;;;2.80;;
19664;SDS011;9980;51.020;7.772;2023-01-15T16:13:01;5.03;;;3.00;;
19664;SDS011;9980;51.020;7.772;2023-01-15T16:15:32;2.60;;;2.40;;
19664;SDS011;9980;51.020;7.772;2023-01-15T16:18:14;4.00;;;3.00;;
19664;SDS011;9980;51.020;7.772;2023-01-15T16:20:52;2.47;;;2.20;;
19664;SDS011;9980;51.020;7.772;2023-01-15T16:23:22;3.23;;;2.57;;
19664;SDS011;9980;51.020;7.772;2023-01-15T16:26:00;4.23;;;2.13;;
19664;SDS011;9980;51.020;7.772;2023-01-15T16:28:51;2.33;;;2.20;;
19664;SDS011;9980;51.020;7.772;2023-01-15T16:31:21;2.33;;;2.17;;
19664;SDS011;9980;51.020;7.772;2023-01-15T16:33:52;2.87;;;2.47;;
19664;SDS011;9980;51.020;7.772;2023-01-15T16:36:22;2.57;;;2.37;;
19664;SDS011;9980;51.020;7.772;2023-01-15T16:38:50;4.47;;;2.57;;
19664;SDS011;9980;51.020;7.772;2023-01-15T16:41:20;3.13;;;2.80;;
19664;SDS011;9980;51.020;7.772;2023-01-15T16:43:55;3.40;;;3.10;;
19664;SDS011;9980;51.020;7.772;2023-01-15T16:47:16;4.67;;;4.10;;
19664;SDS011;9980;51.020;7.772;2023-01-15T16:51:55;5.57;;;3.50;;
19664;SDS011;9980;51.020;7.772;2023-01-15T16:56:57;2.63;;;2.43;;
19664;SDS011;9980;51.020;7.772;2023-01-15T17:02:05;6.40;;;3.53;;
19664;SDS011;9980;51.020;7.772;2023-01-15T17:04:46;3.00;;;2.30;;
19664;SDS011;9980;51.020;7.772;2023-01-15T17:10:03;5.10;;;3.87;;
19664;SDS011;9980;51.020;7.772;2023-01-15T17:12:43;8.23;;;4.60;;
19664;SDS011;9980;51.020;7.772;2023-01-15T17:17:38;2.60;;;2.40;;
19664;SDS011;9980;51.020;7.772;2023-01-15T17:20:07;3.43;;;2.53;;
19664;SDS011;9980;51.020;7.772;2023-01-15T17:22:38;2.60;;;2.40;;
19664;SDS011;9980;51.020;7.772;2023-01-15T17:25:20;3.07;;;2.00;;
19664;SDS011;9980;51.020;7.772;2023-01-15T17:27:58;2.63;;;2.40;;
19664;SDS011;9980;51.020;7.772;2023-01-15T17:30:27;4.77;;;2.73;;
19664;SDS011;9980;51.020;7.772;2023-01-15T17:33:01;4.07;;;2.37;;
19664;SDS011;9980;51.020;7.772;2023-01-15T17:35:31;3.93;;;3.00;;
19664;SDS011;9980;51.020;7.772;2023-01-15T17:38:03;3.03;;;2.53;;
19664;SDS011;9980;51.020;7.772;2023-01-15T17:40:31;4.63;;;2.63;;
19664;SDS011;9980;51.020;7.772;2023-01-15T17:42:58;3.47;;;3.17;;
19664;SDS011;9980;51.020;7.772;2023-01-15T17:45:28;3.10;;;2.80;;
19664;SDS011;9980;51.020;7.772;2023-01-15T17:47:56;2.70;;;2.50;;